Time;durP1;ratioP1;P1;durP2;ratioP2;P2;SDS_P1;SDS_P2;PMS_P1;PMS_P2;Temp;Humidity;BMP_temperature;BMP_pressure;BME280_temperature;BME280_humidity;BME280_pressure;Samples;Min_cycle;Max_cycle;Signal;HPM_P1;HPM_P2
2023/11/18 00:01:10;;;;;;;;;;;;;;;28.04;58.12;101131.53;5100121;27;66403;-33
2023/11/18 00:03:40;;;;;;;;;;;;;;;28.07;57.74;101134.66;5091240;27;70500;-32
2023/11/18 00:06:10;;;;;;;;;;;;;;;28.07;58.08;101140.06;5086989;27;64387;-32
2023/11/18 00:08:40;;;;;;;;;;;;;;;28.11;58.13;101139.66;5085666;27;70356;-32
2023/11/18 00:11:13;;;;;;;;;;;;;;;28.13;57.94;101148.41;5096323;27;66075;-33
2023/11/18 00:13:43;;;;;;;;;;;;;;;28.15;58.26;101140.94;5085692;27;69102;-32
2023/11/18 00:16:13;;;;;;;;;;;;;;;28.16;58.02;101148.00;5091981;27;65529;-33
2023/11/18 00:18:43;;;;;;;;;;;;;;;28.20;59.14;101150.13;5088634;27;70585;-34
2023/11/18 00:21:13;;;;;;;;;;;;;;;28.24;60.13;101155.94;5090555;27;65554;-32
2023/11/18 00:23:43;;;;;;;;;;;;;;;28.26;60.34;101154.72;5092082;27;69635;-33
2023/11/18 00:26:13;;;;;;;;;;;;;;;28.30;60.35;101160.56;5085968;27;65934;-32
2023/11/18 00:28:44;;;;;;;;;;;;;;;28.32;61.48;101169.28;5091205;27;70273;-33
2023/11/18 00:31:14;;;;;;;;;;;;;;;28.35;62.13;101176.16;5071798;27;66285;-34
2023/11/18 00:33:45;;;;;;;;;;;;;;;28.38;62.73;101183.88;5086345;27;69194;-34
2023/11/18 00:36:14;;;;;;;;;;;;;;;28.42;63.04;101188.72;5095782;27;65517;-32
2023/11/18 00:38:45;;;;;;;;;;;;;;;28.46;63.54;101197.25;5092993;27;68299;-32
2023/11/18 00:41:17;;;;;;;;;;;;;;;28.45;63.23;101196.41;5077219;27;67259;-32
2023/11/18 00:43:47;;;;;;;;;;;;;;;28.46;62.71;101203.47;5092068;27;70514;-33
2023/11/18 00:46:17;;;;;;;;;;;;;;;28.42;60.76;101207.59;5102363;27;66323;-33
2023/11/18 00:48:47;;;;;;;;;;;;;;;28.44;59.99;101215.47;5083388;27;70555;-33
2023/11/18 00:51:18;;;;;;;;;;;;;;;28.45;59.82;101228.78;5082146;27;66636;-32
2023/11/18 00:53:48;;;;;;;;;;;;;;;28.47;59.96;101232.13;5101912;27;69982;-33
2023/11/18 00:56:18;;;;;;;;;;;;;;;28.48;59.74;101233.78;5083821;27;66855;-32
2023/11/18 00:58:48;;;;;;;;;;;;;;;28.50;59.26;101229.03;5087364;27;70610;-32
2023/11/18 01:01:18;;;;;;;;;;;;;;;28.51;59.28;101227.19;5083740;27;65938;-34
2023/11/18 01:03:48;;;;;;;;;;;;;;;28.52;59.54;101229.66;5091026;27;70293;-33
2023/11/18 01:06:18;;;;;;;;;;;;;;;28.54;59.43;101234.03;5100161;27;65998;-32
2023/11/18 01:08:48;;;;;;;;;;;;;;;28.56;59.14;101230.13;5083956;27;70288;-33
2023/11/18 01:11:22;;;;;;;;;;;;;;;28.57;59.19;101225.56;5101733;27;67331;-33
2023/11/18 01:13:54;;;;;;;;;;;;;;;28.58;59.13;101232.63;5079424;27;70705;-32
2023/11/18 01:16:24;;;;;;;;;;;;;;;28.59;59.70;101220.81;5099703;27;66018;-33
2023/11/18 01:18:54;;;;;;;;;;;;;;;28.60;59.56;101219.75;5102284;27;69154;-33
2023/11/18 01:21:24;;;;;;;;;;;;;;;28.61;59.47;101221.41;5101819;27;66700;-33
2023/11/18 01:23:55;;;;;;;;;;;;;;;28.62;59.23;101218.53;5102267;27;70649;-33
2023/11/18 01:26:24;;;;;;;;;;;;;;;28.64;59.23;101212.91;5083168;27;66183;-34
2023/11/18 01:28:55;;;;;;;;;;;;;;;28.65;59.15;101211.91;5082969;27;69928;-33
2023/11/18 01:31:26;;;;;;;;;;;;;;;28.67;59.21;101215.25;5101012;27;66539;-33
2023/11/18 01:34:07;;;;;;;;;;;;;;;28.68;59.21;101211.50;5085097;27;70742;-34
2023/11/18 01:36:37;;;;;;;;;;;;;;;28.68;59.11;101217.75;5104910;27;65459;-34
2023/11/18 01:39:07;;;;;;;;;;;;;;;28.73;62.39;101225.25;5104783;27;69894;-33
2023/11/18 01:41:37;;;;;;;;;;;;;;;28.76;63.06;101202.44;5093076;27;66421;-34
2023/11/18 01:44:07;;;;;;;;;;;;;;;28.76;63.30;101205.97;5094859;27;70485;-34
2023/11/18 01:46:38;;;;;;;;;;;;;;;28.76;62.95;101203.25;5092198;27;67373;-33
2023/11/18 01:49:08;;;;;;;;;;;;;;;28.75;63.37;101201.56;5066638;27;72276;-33
2023/11/18 01:51:39;;;;;;;;;;;;;;;28.77;63.02;101196.81;5091348;27;66620;-34
2023/11/18 01:54:14;;;;;;;;;;;;;;;28.78;63.32;101203.03;5078953;27;69852;-34
2023/11/18 01:56:48;;;;;;;;;;;;;;;28.79;63.38;101199.34;5097980;27;67324;-33
2023/11/18 01:59:18;;;;;;;;;;;;;;;28.78;63.03;101206.59;5074994;27;69633;-32
2023/11/18 02:01:51;;;;;;;;;;;;;;;28.81;63.31;101211.59;5076368;27;65283;-33
2023/11/18 02:04:21;;;;;;;;;;;;;;;28.84;62.96;101211.22;5073986;27;70633;-33
2023/11/18 02:06:52;;;;;;;;;;;;;;;28.83;63.29;101206.81;5076227;27;65830;-34
2023/11/18 02:09:30;;;;;;;;;;;;;;;28.87;63.04;101205.41;5078395;27;69845;-34
2023/11/18 02:12:23;;;;;;;;;;;;;;;28.89;63.43;101206.06;5098631;27;66699;-33
2023/11/18 02:14:54;;;;;;;;;;;;;;;28.90;63.69;101210.41;5079781;27;70335;-33
2023/11/18 02:17:25;;;;;;;;;;;;;;;28.93;63.26;101210.00;5082817;27;66851;-33
2023/11/18 02:19:59;;;;;;;;;;;;;;;28.95;63.37;101205.25;5093393;27;70201;-34
2023/11/18 02:22:30;;;;;;;;;;;;;;;28.99;63.66;101210.25;5079359;27;66276;-33
2023/11/18 02:25:06;;;;;;;;;;;;;;;29.00;63.41;101198.41;5076608;27;70349;-33
2023/11/18 02:27:36;;;;;;;;;;;;;;;29.02;63.42;101190.94;5090357;27;66714;-34
2023/11/18 02:30:12;;;;;;;;;;;;;;;29.07;63.23;101207.41;5100224;27;70305;-33
2023/11/18 02:32:54;;;;;;;;;;;;;;;29.07;63.36;101199.31;5074492;27;65655;-34
2023/11/18 02:35:26;;;;;;;;;;;;;;;29.13;63.13;101201.19;5082489;27;69946;-33
2023/11/18 02:37:58;;;;;;;;;;;;;;;29.17;63.46;101194.38;5076214;27;66744;-33
2023/11/18 02:40:35;;;;;;;;;;;;;;;29.23;62.48;101193.56;5090449;27;69442;-37
2023/11/18 02:43:06;;;;;;;;;;;;;;;29.26;63.32;101187.75;5100090;27;66476;-33
2023/11/18 02:45:37;;;;;;;;;;;;;;;29.30;63.17;101189.00;5071647;27;69167;-35
2023/11/18 02:48:07;;;;;;;;;;;;;;;29.31;63.24;101188.00;5088408;27;66151;-32
2023/11/18 02:50:38;;;;;;;;;;;;;;;29.28;61.84;101179.44;5094108;27;70959;-33
2023/11/18 02:53:09;;;;;;;;;;;;;;;29.20;60.61;101191.28;5090187;27;66025;-33
2023/11/18 02:55:40;;;;;;;;;;;;;;;29.19;59.84;101181.47;5075558;27;71197;-35
2023/11/18 02:58:11;;;;;;;;;;;;;;;29.20;58.01;101191.28;5099635;27;65828;-33
2023/11/18 03:00:40;;;;;;;;;;;;;;;29.09;56.11;101194.53;5092636;27;69105;-35
2023/11/18 03:03:11;;;;;;;;;;;;;;;29.00;57.05;101187.59;5089104;27;65665;-34
2023/11/18 03:05:41;;;;;;;;;;;;;;;28.95;55.94;101186.34;5091075;27;69628;-33
2023/11/18 03:08:11;;;;;;;;;;;;;;;28.88;54.87;101182.75;5094466;27;65671;-34
2023/11/18 03:10:44;;;;;;;;;;;;;;;28.81;53.32;101179.22;5088943;27;69710;-34
2023/11/18 03:13:14;;;;;;;;;;;;;;;28.71;52.72;101173.31;5088284;27;66907;-33
2023/11/18 03:15:43;;;;;;;;;;;;;;;28.68;52.29;101173.72;5088589;27;70261;-34
2023/11/18 03:18:15;;;;;;;;;;;;;;;28.64;51.89;101172.44;5096347;27;65531;-33
2023/11/18 03:20:45;;;;;;;;;;;;;;;28.56;51.29;101165.34;5090744;27;69230;-36
2023/11/18 03:23:15;;;;;;;;;;;;;;;28.66;53.60;101160.41;5072437;27;66670;-35
2023/11/18 03:25:46;;;;;;;;;;;;;;;28.70;53.47;101152.78;5096912;27;69873;-33
2023/11/18 03:28:16;;;;;;;;;;;;;;;28.70;52.17;101144.66;5071529;27;66346;-32
2023/11/18 03:30:47;;;;;;;;;;;;;;;28.76;52.50;101145.75;5098657;27;70355;-34
2023/11/18 03:33:18;;;;;;;;;;;;;;;28.80;52.79;101150.53;5097339;27;65348;-34
2023/11/18 03:35:48;;;;;;;;;;;;;;;28.68;51.80;101138.63;5089173;27;70573;-35
2023/11/18 03:38:19;;;;;;;;;;;;;;;28.64;50.98;101134.66;5098491;27;66687;-34
2023/11/18 03:40:49;;;;;;;;;;;;;;;28.58;50.74;101130.06;5085473;27;69152;-35
2023/11/18 03:43:19;;;;;;;;;;;;;;;28.57;50.18;101125.69;5104199;27;67084;-35
2023/11/18 03:45:52;;;;;;;;;;;;;;;28.55;49.97;101141.25;5081997;27;69987;-34
2023/11/18 03:48:22;;;;;;;;;;;;;;;28.59;49.71;101134.44;5084944;27;66066;-33
2023/11/18 03:50:53;;;;;;;;;;;;;;;28.54;48.46;101135.03;5102351;27;69612;-35
2023/11/18 03:53:24;;;;;;;;;;;;;;;28.51;48.85;101128.16;5103796;27;65913;-34
2023/11/18 03:55:54;;;;;;;;;;;;;;;28.63;50.04;101127.59;5082541;27;70248;-36
2023/11/18 03:58:24;;;;;;;;;;;;;;;28.69;49.79;101121.38;5098027;27;66350;-32
2023/11/18 04:00:53;;;;;;;;;;;;;;;28.69;49.30;101121.38;5083769;27;70313;-32
2023/11/18 04:03:23;;;;;;;;;;;;;;;28.75;50.39;101117.88;5084289;27;65701;-33
2023/11/18 04:05:53;;;;;;;;;;;;;;;28.79;49.94;101116.47;5096681;27;70287;-32
2023/11/18 04:08:23;;;;;;;;;;;;;;;28.81;49.67;101119.81;5102063;27;66608;-35
2023/11/18 04:10:53;;;;;;;;;;;;;;;28.86;49.45;101111.94;5100035;27;70276;-33
2023/11/18 04:13:23;;;;;;;;;;;;;;;28.87;49.50;101105.50;5102325;27;66959;-35
2023/11/18 04:15:53;;;;;;;;;;;;;;;28.85;49.19;101102.16;5083359;27;70023;-33
2023/11/18 04:18:23;;;;;;;;;;;;;;;28.88;48.36;101111.72;5082347;27;66918;-31
2023/11/18 04:20:53;;;;;;;;;;;;;;;28.85;47.24;101091.34;5083726;27;70667;-32
2023/11/18 04:23:24;;;;;;;;;;;;;;;28.81;46.62;101090.09;5083953;27;65921;-32
2023/11/18 04:25:54;;;;;;;;;;;;;;;28.78;46.66;101087.81;5083221;27;70365;-33
2023/11/18 04:28:24;;;;;;;;;;;;;;;28.73;46.25;101074.09;5100988;27;66792;-32
2023/11/18 04:30:54;;;;;;;;;;;;;;;28.70;45.56;101075.31;5090763;27;70333;-32
2023/11/18 04:33:26;;;;;;;;;;;;;;;28.65;45.33;101069.69;5103062;27;66664;-32
2023/11/18 04:36:00;;;;;;;;;;;;;;;28.61;45.44;101076.53;5101264;27;70660;-32
2023/11/18 04:38:31;;;;;;;;;;;;;;;28.59;45.48;101066.97;5102649;27;66878;-33
2023/11/18 04:41:06;;;;;;;;;;;;;;;28.56;45.30;101067.38;5103033;27;69828;-32
2023/11/18 04:43:39;;;;;;;;;;;;;;;28.56;44.80;101053.88;5083777;27;65570;-32
2023/11/18 04:46:13;;;;;;;;;;;;;;;28.54;45.11;101043.25;5102330;27;69647;-33
2023/11/18 04:48:43;;;;;;;;;;;;;;;28.54;45.03;101042.44;5100946;27;65907;-31
2023/11/18 04:51:14;;;;;;;;;;;;;;;28.55;45.33;101044.91;5083880;27;70664;-33
2023/11/18 04:53:45;;;;;;;;;;;;;;;28.55;45.44;101030.59;5101682;27;65998;-33
2023/11/18 04:56:16;;;;;;;;;;;;;;;28.52;44.53;101027.25;5101470;27;70398;-35
2023/11/18 04:58:47;;;;;;;;;;;;;;;28.52;44.90;101029.97;5102077;27;65581;-34
2023/11/18 05:01:18;;;;;;;;;;;;;;;28.52;44.90;101015.63;5101908;27;70686;-33
2023/11/18 05:03:47;;;;;;;;;;;;;;;28.57;46.71;101021.28;5100951;27;66651;-35
2023/11/18 05:06:19;;;;;;;;;;;;;;;28.62;47.40;101012.56;5101901;27;69806;-33
2023/11/18 05:08:49;;;;;;;;;;;;;;;28.65;47.12;101001.38;5101172;27;65888;-34
2023/11/18 05:11:19;;;;;;;;;;;;;;;28.69;47.64;100998.03;5100683;27;69753;-34
2023/11/18 05:13:49;;;;;;;;;;;;;;;28.69;47.22;100994.53;5102001;27;65848;-35
2023/11/18 05:16:19;;;;;;;;;;;;;;;28.72;48.29;100986.00;5102365;27;70614;-31
2023/11/18 05:18:49;;;;;;;;;;;;;;;28.73;47.73;100976.91;5100713;27;66438;-35
2023/11/18 05:21:18;;;;;;;;;;;;;;;28.75;47.18;100985.59;5101495;27;69268;-32
2023/11/18 05:23:48;;;;;;;;;;;;;;;28.77;46.93;100974.63;5102850;27;66498;-32
2023/11/18 05:26:19;;;;;;;;;;;;;;;28.78;47.08;100974.44;5101449;27;70291;-32
2023/11/18 05:28:49;;;;;;;;;;;;;;;28.80;47.15;100966.94;5101615;27;67132;-35
2023/11/18 05:31:20;;;;;;;;;;;;;;;28.80;46.81;100958.84;5101950;27;69695;-32
2023/11/18 05:33:51;;;;;;;;;;;;;;;28.81;46.87;100960.50;5101341;27;66468;-32
2023/11/18 05:36:27;;;;;;;;;;;;;;;28.82;47.60;100959.47;5101997;27;70105;-31
2023/11/18 05:38:57;;;;;;;;;;;;;;;28.84;47.59;100957.41;5101557;27;66069;-32
2023/11/18 05:41:30;;;;;;;;;;;;;;;28.85;47.30;100955.53;5101615;27;70396;-32
2023/11/18 05:44:00;;;;;;;;;;;;;;;28.83;46.90;100950.31;5101698;27;66477;-32
2023/11/18 05:46:32;;;;;;;;;;;;;;;28.80;46.27;100947.22;5101189;27;70443;-32
2023/11/18 05:49:07;;;;;;;;;;;;;;;28.79;46.24;100951.78;5101769;27;66596;-32
2023/11/18 05:51:37;;;;;;;;;;;;;;;28.75;45.46;100942.41;5102750;27;69837;-32
2023/11/18 05:54:07;;;;;;;;;;;;;;;28.78;45.81;100942.03;5100414;27;67060;-32
2023/11/18 05:56:37;;;;;;;;;;;;;;;28.78;45.33;100939.34;5084329;27;70303;-32
2023/11/18 05:59:08;;;;;;;;;;;;;;;28.76;45.29;100936.00;5088278;27;66883;-32
2023/11/18 06:01:38;;;;;;;;;;;;;;;28.77;44.97;100920.63;5086497;27;70400;-31
2023/11/18 06:04:10;;;;;;;;;;;;;;;28.76;44.65;100927.91;5101664;27;67121;-33
2023/11/18 06:06:41;;;;;;;;;;;;;;;28.75;44.56;100926.22;5102404;27;70289;-33
2023/11/18 06:09:17;;;;;;;;;;;;;;;28.75;44.38;100920.81;5101325;27;65976;-34
2023/11/18 06:11:49;;;;;;;;;;;;;;;28.77;44.18;100916.06;5101860;27;70309;-31
2023/11/18 06:14:19;;;;;;;;;;;;;;;28.79;44.08;100911.28;5101487;27;66342;-31
2023/11/18 06:16:50;;;;;;;;;;;;;;;28.78;44.16;100915.03;5101414;27;69660;-31
2023/11/18 06:19:20;;;;;;;;;;;;;;;28.79;44.01;100913.97;5102610;27;66640;-32
2023/11/18 06:21:50;;;;;;;;;;;;;;;28.81;44.46;100903.81;5103876;27;70609;-32
2023/11/18 06:24:21;;;;;;;;;;;;;;;28.82;43.84;100900.06;5104366;27;66968;-31
2023/11/18 06:26:51;;;;;;;;;;;;;;;28.83;44.38;100899.03;5104228;27;69871;-32
2023/11/18 06:29:21;;;;;;;;;;;;;;;28.89;44.83;100890.13;5103148;27;67079;-33
2023/11/18 06:31:51;;;;;;;;;;;;;;;28.90;45.48;100897.19;5104177;27;69224;-34
2023/11/18 06:34:21;;;;;;;;;;;;;;;28.92;45.13;100889.72;5104546;27;66675;-32
2023/11/18 06:36:51;;;;;;;;;;;;;;;28.93;44.88;100871.63;5096188;27;70680;-31
2023/11/18 06:39:25;;;;;;;;;;;;;;;28.92;44.59;100859.19;5104513;27;67034;-34
2023/11/18 06:41:58;;;;;;;;;;;;;;;28.92;44.17;100857.31;5091155;27;70673;-34
2023/11/18 06:44:28;;;;;;;;;;;;;;;28.89;44.51;100852.31;5102859;27;66982;-33
2023/11/18 06:46:58;;;;;;;;;;;;;;;28.93;44.09;100853.56;5104555;27;70011;-33
2023/11/18 06:49:29;;;;;;;;;;;;;;;28.95;43.95;100851.47;5104383;27;66027;-32
2023/11/18 06:52:02;;;;;;;;;;;;;;;28.97;43.64;100853.97;5102653;27;70864;-31
2023/11/18 06:54:33;;;;;;;;;;;;;;;28.95;43.47;100840.69;5104837;27;66328;-34
2023/11/18 06:57:03;;;;;;;;;;;;;;;29.00;43.37;100844.63;5104343;27;70666;-32
2023/11/18 06:59:33;;;;;;;;;;;;;;;29.03;43.50;100841.50;5104116;27;65912;-33
2023/11/18 07:02:05;;;;;;;;;;;;;;;29.02;43.03;100840.66;5104344;27;70585;-33
2023/11/18 07:04:35;;;;;;;;;;;;;;;29.05;43.47;100850.25;5103827;27;66898;-32
2023/11/18 07:07:08;;;;;;;;;;;;;;;29.08;43.08;100839.03;5104190;27;70085;-32
2023/11/18 07:09:39;;;;;;;;;;;;;;;29.10;43.28;100847.75;5103567;27;67110;-32
2023/11/18 07:12:08;;;;;;;;;;;;;;;29.11;42.73;100849.41;5102668;27;70747;-33
2023/11/18 07:14:38;;;;;;;;;;;;;;;29.14;42.64;100849.84;5104361;27;66587;-32
2023/11/18 07:17:08;;;;;;;;;;;;;;;29.17;43.04;100827.00;5103686;27;71029;-32
2023/11/18 07:19:39;;;;;;;;;;;;;;;29.16;42.21;100823.44;5103344;27;65057;-32
2023/11/18 07:22:10;;;;;;;;;;;;;;;29.23;42.48;100830.72;5104467;27;69041;-32
2023/11/18 07:24:39;;;;;;;;;;;;;;;29.26;42.03;100823.03;5104810;27;66099;-32
2023/11/18 07:27:11;;;;;;;;;;;;;;;29.28;42.38;100833.59;5102866;27;69498;-33
2023/11/18 07:29:41;;;;;;;;;;;;;;;29.33;43.04;100826.53;5103488;27;65329;-33
2023/11/18 07:32:11;;;;;;;;;;;;;;;29.35;43.25;100824.44;5103113;27;70122;-34
2023/11/18 07:34:41;;;;;;;;;;;;;;;29.38;43.15;100824.03;5102598;27;66044;-33
2023/11/18 07:37:12;;;;;;;;;;;;;;;29.46;42.92;100824.84;5103792;27;70580;-32
2023/11/18 07:39:48;;;;;;;;;;;;;;;29.45;42.66;100828.56;5104168;27;66677;-33
2023/11/18 07:42:18;;;;;;;;;;;;;;;29.51;42.63;100823.16;5102732;27;70255;-33
2023/11/18 07:44:47;;;;;;;;;;;;;;;29.54;42.44;100832.72;5102865;27;65367;-32
2023/11/18 07:47:19;;;;;;;;;;;;;;;29.56;42.71;100822.50;5103125;27;69944;-32
2023/11/18 07:49:49;;;;;;;;;;;;;;;29.62;42.41;100824.38;5102689;27;67330;-31
2023/11/18 07:52:19;;;;;;;;;;;;;;;29.64;42.31;100816.91;5103091;27;69078;-33
2023/11/18 07:54:49;;;;;;;;;;;;;;;29.68;41.81;100812.75;5104213;27;65452;-33
2023/11/18 07:57:23;;;;;;;;;;;;;;;29.71;42.07;100822.31;5102972;27;70394;-32
2023/11/18 07:59:54;;;;;;;;;;;;;;;29.77;41.86;100821.44;5103126;27;66891;-33
2023/11/18 08:02:24;;;;;;;;;;;;;;;29.79;41.69;100822.06;5101332;27;69080;-32
2023/11/18 08:04:55;;;;;;;;;;;;;;;29.84;41.71;100827.66;5089427;27;66579;-33
2023/11/18 08:07:25;;;;;;;;;;;;;;;29.88;41.56;100833.47;5102615;27;70157;-33
2023/11/18 08:09:54;;;;;;;;;;;;;;;29.93;41.61;100820.13;5101907;27;66603;-32
2023/11/18 08:12:25;;;;;;;;;;;;;;;29.98;41.06;100818.44;5102404;27;70603;-33
2023/11/18 08:14:54;;;;;;;;;;;;;;;30.00;41.34;100831.72;5102318;27;66968;-31
2023/11/18 08:17:25;;;;;;;;;;;;;;;30.07;41.56;100821.72;5101819;27;69412;-32
2023/11/18 08:19:55;;;;;;;;;;;;;;;30.10;41.42;100821.28;5102597;27;66128;-34
2023/11/18 08:22:25;;;;;;;;;;;;;;;30.15;40.98;100817.94;5102945;27;70566;-34
2023/11/18 08:24:55;;;;;;;;;;;;;;;30.14;41.10;100822.50;5101809;27;66201;-33
2023/11/18 08:27:24;;;;;;;;;;;;;;;30.22;41.46;100819.56;5102611;27;70635;-31
2023/11/18 08:29:54;;;;;;;;;;;;;;;30.30;42.92;100836.59;5103715;27;65467;-33
2023/11/18 08:32:24;;;;;;;;;;;;;;;30.35;42.59;100834.09;5101233;27;70082;-31
2023/11/18 08:34:54;;;;;;;;;;;;;;;30.35;42.78;100826.78;5102889;27;66624;-33
2023/11/18 08:37:24;;;;;;;;;;;;;;;30.34;42.47;100837.81;5085023;27;69822;-33
2023/11/18 08:39:53;;;;;;;;;;;;;;;30.39;41.92;100832.59;5101715;27;65474;-32
2023/11/18 08:42:24;;;;;;;;;;;;;;;30.38;41.70;100839.06;5102411;27;70681;-33
2023/11/18 08:44:55;;;;;;;;;;;;;;;30.43;42.01;100836.53;5103035;27;66852;-34
2023/11/18 08:47:25;;;;;;;;;;;;;;;30.43;41.47;100844.66;5088391;27;69790;-32
2023/11/18 08:49:55;;;;;;;;;;;;;;;30.43;41.55;100847.34;5102063;27;66612;-32
2023/11/18 08:52:25;;;;;;;;;;;;;;;30.47;41.33;100843.97;5084389;27;70544;-33
2023/11/18 08:57:57;;;;;;;;;;;;;;;30.51;40.83;100855.22;5101522;27;69939;-32
2023/11/18 09:00:47;;;;;;;;;;;;;;;30.55;40.82;100856.41;5102004;27;67405;-32
2023/11/18 09:03:24;;;;;;;;;;;;;;;30.63;42.29;100853.44;5100661;27;69935;-34
2023/11/18 09:05:56;;;;;;;;;;;;;;;30.84;44.00;100849.59;5100745;27;65294;-34
2023/11/18 09:08:38;;;;;;;;;;;;;;;30.90;49.28;100858.72;5083122;27;69869;-35
2023/11/18 09:11:10;;;;;;;;;;;;;;;31.07;49.93;100854.38;5100047;27;66314;-35
2023/11/18 09:13:42;;;;;;;;;;;;;;;31.34;48.68;100848.69;5101044;27;70588;-35
2023/11/18 09:16:12;;;;;;;;;;;;;;;31.50;48.89;100853.56;5100786;27;66519;-34
2023/11/18 09:18:44;;;;;;;;;;;;;;;31.52;50.50;100854.16;5101015;27;69233;-36
2023/11/18 09:21:14;;;;;;;;;;;;;;;31.46;51.40;100852.38;5101220;27;66197;-34
2023/11/18 09:23:50;;;;;;;;;;;;;;;31.47;52.79;100855.91;5082097;27;70207;-34
2023/11/18 09:26:21;;;;;;;;;;;;;;;31.51;52.65;100855.22;5099567;27;67026;-36
2023/11/18 09:28:52;;;;;;;;;;;;;;;31.50;53.92;100869.81;5101696;27;70377;-35
2023/11/18 09:31:22;;;;;;;;;;;;;;;31.60;52.53;100864.72;5101115;27;65845;-36
2023/11/18 09:33:52;;;;;;;;;;;;;;;31.63;52.75;100870.75;5101126;27;69425;-35
2023/11/18 09:36:22;;;;;;;;;;;;;;;31.63;52.84;100873.47;5101711;27;65866;-34
2023/11/18 09:38:53;;;;;;;;;;;;;;;31.65;52.98;100876.75;5098995;27;70899;-34
2023/11/18 09:41:26;;;;;;;;;;;;;;;31.68;52.12;100877.16;5082359;27;66609;-35
2023/11/18 09:43:56;;;;;;;;;;;;;;;31.73;51.33;100881.88;5099579;27;70772;-35
2023/11/18 09:46:32;;;;;;;;;;;;;;;31.77;50.97;100885.81;5100424;27;66822;-34
2023/11/18 09:49:14;;;;;;;;;;;;;;;31.79;50.84;100883.72;5101205;27;70176;-35
2023/11/18 09:51:48;;;;;;;;;;;;;;;31.76;51.56;100879.56;5100323;27;67088;-35
2023/11/18 09:54:32;;;;;;;;;;;;;;;31.76;51.58;100884.13;5102823;27;70802;-36
2023/11/18 09:57:26;;;;;;;;;;;;;;;31.77;51.66;100891.25;5103206;27;66918;-36
2023/11/18 10:00:10;;;;;;;;;;;;;;;31.81;51.96;100900.56;5071751;27;70081;-36
2023/11/18 10:02:40;;;;;;;;;;;;;;;31.82;51.64;100900.34;5104631;27;66005;-36
2023/11/18 10:05:13;;;;;;;;;;;;;;;31.87;52.56;100910.50;5104219;27;70530;-36
2023/11/18 10:07:45;;;;;;;;;;;;;;;31.86;51.87;100914.28;5102978;27;67049;-35
2023/11/18 10:10:15;;;;;;;;;;;;;;;31.82;52.14;100918.50;5105233;27;70640;-36
2023/11/18 10:12:46;;;;;;;;;;;;;;;31.81;52.05;100922.25;5104253;27;66699;-36
2023/11/18 10:15:17;;;;;;;;;;;;;;;31.82;51.79;100915.81;5085979;27;69537;-34
2023/11/18 10:20:46;;;;;;;;;;;;;;;31.86;52.02;100933.28;5103594;27;69861;-33
2023/11/18 10:23:20;;;;;;;;;;;;;;;31.82;51.72;100923.94;5104818;27;66733;-34
2023/11/18 10:25:52;;;;;;;;;;;;;;;31.80;51.61;100920.63;5103316;27;69788;-34
2023/11/18 10:28:27;;;;;;;;;;;;;;;31.77;51.65;100929.22;5100831;27;66033;-34
2023/11/18 10:31:04;;;;;;;;;;;;;;;31.80;52.05;100929.56;5104191;27;69478;-34
2023/11/18 10:33:38;;;;;;;;;;;;;;;31.82;51.24;100929.38;5098370;27;66508;-35
2023/11/18 10:36:22;;;;;;;;;;;;;;;31.87;51.34;100934.91;5103203;27;68765;-35
2023/11/18 10:38:55;;;;;;;;;;;;;;;31.98;51.48;100936.94;5101668;27;66584;-34
2023/11/18 10:41:25;;;;;;;;;;;;;;;32.16;51.14;100933.38;5104794;27;70493;-35
2023/11/18 10:44:13;;;;;;;;;;;;;;;32.25;50.99;100942.03;5103952;27;66956;-33
2023/11/18 10:46:53;;;;;;;;;;;;;;;32.30;51.84;100942.19;5104410;27;69349;-33
2023/11/18 10:49:24;;;;;;;;;;;;;;;32.33;51.23;100949.03;5100394;27;66002;-34
2023/11/18 10:51:56;;;;;;;;;;;;;;;32.34;51.29;100943.34;5104606;27;69018;-34
2023/11/18 10:54:27;;;;;;;;;;;;;;;32.37;51.11;100952.94;5104673;27;66023;-34
2023/11/18 10:57:05;;;;;;;;;;;;;;;32.39;51.03;100948.13;5102715;27;69814;-33
2023/11/18 10:59:36;;;;;;;;;;;;;;;32.40;51.02;100960.63;5104070;27;65608;-34
2023/11/18 11:02:19;;;;;;;;;;;;;;;32.41;51.27;100962.28;5104153;27;70290;-34
2023/11/18 11:04:49;;;;;;;;;;;;;;;32.40;51.18;100969.63;5104095;27;65812;-35
2023/11/18 11:07:19;;;;;;;;;;;;;;;32.38;51.55;100977.16;5103724;27;70379;-35
2023/11/18 11:09:56;;;;;;;;;;;;;;;32.39;51.52;100981.50;5090346;27;65564;-34
2023/11/18 11:12:29;;;;;;;;;;;;;;;32.40;51.68;100983.19;5102304;27;69635;-35
2023/11/18 11:15:13;;;;;;;;;;;;;;;32.41;51.63;100981.31;5103674;27;66305;-34
2023/11/18 11:17:47;;;;;;;;;;;;;;;32.42;51.80;100991.91;5103310;27;70310;-33
2023/11/18 11:20:26;;;;;;;;;;;;;;;32.42;51.89;100989.19;5103734;27;66071;-35
2023/11/18 11:23:00;;;;;;;;;;;;;;;32.39;52.08;100997.81;5103389;27;70168;-33
2023/11/18 11:25:43;;;;;;;;;;;;;;;32.39;52.26;100997.81;5104721;27;65668;-35
2023/11/18 11:28:23;;;;;;;;;;;;;;;32.39;52.64;101008.66;5104056;27;69867;-34
2023/11/18 11:31:03;;;;;;;;;;;;;;;32.37;52.81;101005.34;5103308;27;66607;-34
2023/11/18 11:33:42;;;;;;;;;;;;;;;32.38;52.52;101011.63;5102821;27;70414;-33
2023/11/18 11:36:16;;;;;;;;;;;;;;;32.37;52.70;101005.34;5104091;27;66930;-36
2023/11/18 11:38:46;;;;;;;;;;;;;;;32.37;52.86;101010.75;5102483;27;70235;-35
2023/11/18 11:41:19;;;;;;;;;;;;;;;32.36;52.86;101017.25;5103679;27;66369;-37
2023/11/18 11:43:49;;;;;;;;;;;;;;;32.35;53.12;101028.38;5101635;27;69598;-36
2023/11/18 11:46:23;;;;;;;;;;;;;;;32.34;53.21;101032.94;5104105;27;66980;-35
2023/11/18 11:48:55;;;;;;;;;;;;;;;32.33;53.17;101038.63;5103515;27;69666;-34
2023/11/18 11:51:29;;;;;;;;;;;;;;;32.31;53.57;101044.25;5082115;27;65532;-33
2023/11/18 11:54:28;;;;;;;;;;;;;;;32.30;53.40;101052.66;5089183;27;68667;-34
2023/11/18 11:57:01;;;;;;;;;;;;;;;32.28;53.47;101067.25;5084301;27;66356;-36
2023/11/18 11:59:53;;;;;;;;;;;;;;;32.27;53.58;101068.31;5103446;27;69764;-35
2023/11/18 12:02:24;;;;;;;;;;;;;;;32.25;53.97;101067.72;5103890;27;67012;-35
2023/11/18 12:04:58;;;;;;;;;;;;;;;32.24;53.86;101078.81;5102805;27;69993;-34
2023/11/18 12:07:28;;;;;;;;;;;;;;;32.05;53.91;101054.34;5101833;27;66427;-38
2023/11/18 12:10:05;;;;;;;;;;;;;;;32.21;53.92;101073.84;5099393;27;70333;-35
2023/11/18 12:12:36;;;;;;;;;;;;;;;32.18;54.37;101076.97;5103170;27;65782;-34
2023/11/18 12:15:12;;;;;;;;;;;;;;;32.17;54.59;101091.59;5101918;27;69948;-33
2023/11/18 12:17:51;;;;;;;;;;;;;;;32.16;54.50;101098.09;5103096;27;66186;-35
2023/11/18 12:20:42;;;;;;;;;;;;;;;32.15;54.51;101099.13;5102149;27;69973;-34
2023/11/18 12:23:14;;;;;;;;;;;;;;;32.13;54.91;101106.69;5102454;27;65513;-35
2023/11/18 12:25:45;;;;;;;;;;;;;;;32.11;54.77;101114.22;5102028;27;70114;-34
2023/11/18 12:28:16;;;;;;;;;;;;;;;32.10;54.66;101112.56;5102802;27;66279;-33
2023/11/18 12:30:52;;;;;;;;;;;;;;;32.10;54.90;101112.56;5102536;27;71409;-35
2023/11/18 12:33:26;;;;;;;;;;;;;;;32.09;54.95;101121.75;5100742;27;66125;-36
2023/11/18 12:36:15;;;;;;;;;;;;;;;32.07;54.96;101119.25;5102928;27;70005;-36
2023/11/18 12:38:58;;;;;;;;;;;;;;;32.04;55.31;101125.97;5101720;27;65991;-34
2023/11/18 12:41:41;;;;;;;;;;;;;;;32.03;55.46;101132.44;5102707;27;70331;-35
2023/11/18 12:44:23;;;;;;;;;;;;;;;32.02;55.24;101141.63;5102471;27;66706;-36
2023/11/18 12:46:55;;;;;;;;;;;;;;;32.00;55.37;101138.31;5102793;27;69877;-34
2023/11/18 12:49:24;;;;;;;;;;;;;;;32.00;55.76;101151.88;5101758;27;65967;-37
2023/11/18 12:51:55;;;;;;;;;;;;;;;31.99;55.55;101155.66;5102486;27;70487;-35
2023/11/18 12:54:28;;;;;;;;;;;;;;;31.97;55.56;101157.75;5084402;27;64791;-35
2023/11/18 12:57:01;;;;;;;;;;;;;;;31.95;55.67;101162.56;5099631;27;70429;-35
2023/11/18 12:59:31;;;;;;;;;;;;;;;31.93;55.88;101161.97;5101748;27;66503;-35
2023/11/18 13:02:04;;;;;;;;;;;;;;;31.92;55.92;101171.13;5101761;27;70199;-34
2023/11/18 13:04:34;;;;;;;;;;;;;;;31.91;55.93;101180.34;5103112;27;66757;-34
2023/11/18 13:07:03;;;;;;;;;;;;;;;31.90;56.06;101186.78;5102197;27;69695;-34